Time;durP1;ratioP1;P1;durP2;ratioP2;P2;SDS_P1;SDS_P2;PMS_P1;PMS_P2;Temp;Humidity;BMP_temperature;BMP_pressure;BME280_temperature;BME280_humidity;BME280_pressure;Samples;Min_cycle;Max_cycle;Signal;HPM_P1;HPM_P2
2024/03/18 00:00:14;;;;;;;;;;;;;;;13.01;54.19;99662.94;5070418;28;19969;-80
2024/03/18 00:02:43;;;;;;;;;;;;;;;13.00;54.63;99656.00;5071740;28;19977;-81
2024/03/18 00:05:12;;;;;;;;;;;;;;;13.02;54.25;99650.50;5071615;28;19916;-80
2024/03/18 00:07:38;;;;;;;;;;;;;;;12.98;54.43;99650.06;5071783;28;19912;-81
2024/03/18 00:10:04;;;;;;;;;;;;;;;12.96;54.51;99649.44;5071803;28;19913;-80
2024/03/18 00:12:29;;;;;;;;;;;;;;;12.96;54.39;99646.78;5071614;28;19912;-81
2024/03/18 00:14:54;;;;;;;;;;;;;;;12.96;54.45;99638.84;5071663;28;20349;-80
2024/03/18 00:17:20;;;;;;;;;;;;;;;12.97;54.59;99642.31;5071520;28;19982;-80
2024/03/18 00:19:45;;;;;;;;;;;;;;;12.95;55.03;99639.03;5070306;28;20355;-81
2024/03/18 00:22:11;;;;;;;;;;;;;;;12.94;55.05;99640.88;5071683;28;19920;-80
2024/03/18 00:24:36;;;;;;;;;;;;;;;12.93;55.01;99636.56;5071572;28;19920;-80
2024/03/18 00:27:01;;;;;;;;;;;;;;;12.92;55.14;99634.94;5071664;28;19919;-81
2024/03/18 00:29:27;;;;;;;;;;;;;;;12.89;55.45;99626.53;5071650;28;19999;-81
2024/03/18 00:31:52;;;;;;;;;;;;;;;12.86;55.27;99627.75;5071304;28;20382;-81
2024/03/18 00:34:18;;;;;;;;;;;;;;;12.87;55.14;99626.75;5071407;28;19970;-80
2024/03/18 00:36:44;;;;;;;;;;;;;;;12.87;55.45;99621.44;5071528;28;20337;-81
2024/03/18 00:39:09;;;;;;;;;;;;;;;12.88;55.14;99620.44;5071553;28;20309;-81
2024/03/18 00:41:46;;;;;;;;;;;;;;;12.86;55.23;99611.84;5070287;28;19966;-81
2024/03/18 00:44:16;;;;;;;;;;;;;;;12.85;55.46;99620.00;5071697;28;19955;-81
2024/03/18 00:46:44;;;;;;;;;;;;;;;12.84;55.73;99615.69;5071790;28;19920;-81
2024/03/18 00:49:10;;;;;;;;;;;;;;;12.84;55.59;99618.34;5072047;28;19912;-81
2024/03/18 00:51:36;;;;;;;;;;;;;;;12.85;55.73;99612.84;5071752;28;20401;-81
2024/03/18 00:54:02;;;;;;;;;;;;;;;12.83;55.90;99614.06;5070428;28;20393;-81
2024/03/18 00:56:27;;;;;;;;;;;;;;;12.83;55.75;99614.06;5071287;28;19913;-81
2024/03/18 00:58:54;;;;;;;;;;;;;;;12.85;55.96;99606.75;5071712;28;19923;-81
2024/03/18 01:01:20;;;;;;;;;;;;;;;12.85;56.01;99612.03;5071197;28;19916;-80
2024/03/18 01:03:45;;;;;;;;;;;;;;;12.84;56.30;99610.41;5073945;28;20312;-80
2024/03/18 01:06:10;;;;;;;;;;;;;;;12.86;54.70;99603.09;5075006;28;19931;-81
2024/03/18 01:08:37;;;;;;;;;;;;;;;12.79;55.55;99610.16;5075157;28;19913;-80
2024/03/18 01:11:02;;;;;;;;;;;;;;;12.66;56.07;99608.22;5074796;28;19920;-80
2024/03/18 01:13:32;;;;;;;;;;;;;;;12.56;56.93;99607.66;5074925;28;20355;-81
2024/03/18 01:15:58;;;;;;;;;;;;;;;12.50;56.03;99611.91;5074805;28;19912;-81
2024/03/18 01:18:24;;;;;;;;;;;;;;;12.46;57.11;99612.47;5074821;28;20400;-81
2024/03/18 01:20:49;;;;;;;;;;;;;;;12.45;56.36;99602.88;5074667;28;20011;-81
2024/03/18 01:23:15;;;;;;;;;;;;;;;12.39;57.38;99607.09;5074844;28;19916;-81
2024/03/18 01:25:40;;;;;;;;;;;;;;;12.39;56.42;99607.91;5074429;28;20413;-81
2024/03/18 01:28:05;;;;;;;;;;;;;;;12.35;56.40;99606.66;5074388;28;19928;-80
2024/03/18 01:30:31;;;;;;;;;;;;;;;12.31;56.57;99601.91;5073276;28;19946;-81
2024/03/18 01:32:56;;;;;;;;;;;;;;;12.29;57.12;99594.16;5074529;28;19916;-81
2024/03/18 01:35:22;;;;;;;;;;;;;;;12.27;57.36;99601.47;5074353;28;19917;-81
2024/03/18 01:37:48;;;;;;;;;;;;;;;12.26;57.34;99597.19;5074177;28;19912;-80
2024/03/18 01:40:14;;;;;;;;;;;;;;;12.27;57.89;99600.66;5073002;28;20309;-80
2024/03/18 01:42:39;;;;;;;;;;;;;;;12.23;57.79;99600.22;5074478;28;19912;-80
2024/03/18 01:45:05;;;;;;;;;;;;;;;12.22;57.37;99589.81;5074208;28;19999;-81
2024/03/18 01:47:30;;;;;;;;;;;;;;;12.23;58.16;99597.56;5074151;28;19917;-81
2024/03/18 01:49:56;;;;;;;;;;;;;;;12.25;56.88;99586.78;5074139;28;19919;-81
2024/03/18 01:52:21;;;;;;;;;;;;;;;12.21;58.21;99589.00;5074326;28;19919;-80
2024/03/18 01:54:47;;;;;;;;;;;;;;;12.23;58.21;99592.28;5074150;28;19920;-80
2024/03/18 01:57:13;;;;;;;;;;;;;;;12.28;58.06;99584.59;5073932;28;19917;-81
2024/03/18 01:59:38;;;;;;;;;;;;;;;12.29;58.50;99588.88;5073872;28;19919;-81
2024/03/18 02:02:03;;;;;;;;;;;;;;;12.31;58.07;99586.03;5073948;28;19920;-80
2024/03/18 02:04:29;;;;;;;;;;;;;;;12.31;58.00;99584.22;5072676;28;20332;-81
2024/03/18 02:06:54;;;;;;;;;;;;;;;12.35;57.89;99582.00;5074120;28;19913;-81
2024/03/18 02:09:20;;;;;;;;;;;;;;;12.33;58.16;99579.53;5074032;28;19913;-80
2024/03/18 02:11:45;;;;;;;;;;;;;;;12.35;58.03;99574.88;5073965;28;19913;-81
2024/03/18 02:14:14;;;;;;;;;;;;;;;12.37;57.69;99586.09;5073097;28;20347;-80
2024/03/18 02:16:39;;;;;;;;;;;;;;;12.43;57.46;99578.41;5073877;28;20312;-80
2024/03/18 02:19:04;;;;;;;;;;;;;;;12.44;57.50;99580.88;5073790;28;19912;-80
2024/03/18 02:21:29;;;;;;;;;;;;;;;12.50;57.43;99587.25;5072397;28;19916;-80
2024/03/18 02:23:55;;;;;;;;;;;;;;;12.48;57.90;99576.84;5073862;28;19994;-80
2024/03/18 02:26:20;;;;;;;;;;;;;;;12.53;57.31;99578.91;5073532;28;19912;-80
2024/03/18 02:28:46;;;;;;;;;;;;;;;12.54;56.57;99578.72;5073471;28;20348;-81
2024/03/18 02:31:12;;;;;;;;;;;;;;;12.53;56.56;99578.91;5073427;28;19913;-80
2024/03/18 02:33:37;;;;;;;;;;;;;;;12.53;56.72;99581.56;5072135;28;19962;-81
2024/03/18 02:36:03;;;;;;;;;;;;;;;12.53;56.80;99577.09;5072999;28;19995;-81
2024/03/18 02:38:28;;;;;;;;;;;;;;;12.45;57.12;99573.75;5073103;28;19991;-81
2024/03/18 02:40:54;;;;;;;;;;;;;;;12.46;56.76;99565.63;5073075;28;19934;-80
2024/03/18 02:43:19;;;;;;;;;;;;;;;12.46;56.77;99562.97;5073007;28;20007;-80
2024/03/18 02:45:44;;;;;;;;;;;;;;;12.46;56.71;99570.91;5072935;28;19917;-80
2024/03/18 02:48:09;;;;;;;;;;;;;;;12.40;56.32;99571.66;5072948;28;20022;-81
2024/03/18 02:50:35;;;;;;;;;;;;;;;12.39;56.51;99560.25;5073065;28;20379;-81
2024/03/18 02:53:00;;;;;;;;;;;;;;;12.34;56.78;99567.13;5073137;28;19919;-81
2024/03/18 02:55:25;;;;;;;;;;;;;;;12.35;57.25;99576.72;5072876;28;20385;-80
2024/03/18 02:57:51;;;;;;;;;;;;;;;12.35;56.70;99572.22;5072915;28;19912;-80
2024/03/18 03:00:17;;;;;;;;;;;;;;;12.37;56.24;99567.56;5072828;28;20487;-80
2024/03/18 03:02:42;;;;;;;;;;;;;;;12.26;57.15;99573.38;5072799;28;19928;-80
2024/03/18 03:05:08;;;;;;;;;;;;;;;12.30;56.73;99581.75;5072840;28;20286;-81
2024/03/18 03:07:34;;;;;;;;;;;;;;;12.28;56.56;99574.00;5072879;28;19912;-80
2024/03/18 03:10:03;;;;;;;;;;;;;;;12.28;56.20;99578.47;5072658;28;20457;-80
2024/03/18 03:12:28;;;;;;;;;;;;;;;12.29;56.58;99585.41;5072367;28;19947;-80
2024/03/18 03:14:53;;;;;;;;;;;;;;;12.25;56.70;99578.84;5072550;28;20037;-81
2024/03/18 03:17:19;;;;;;;;;;;;;;;12.23;56.34;99583.50;5072566;28;19913;-81
2024/03/18 03:19:44;;;;;;;;;;;;;;;12.25;56.15;99581.50;5072456;28;19912;-80
2024/03/18 03:22:09;;;;;;;;;;;;;;;12.19;56.87;99582.25;5072597;28;19965;-80
2024/03/18 03:24:34;;;;;;;;;;;;;;;12.18;56.12;99589.38;5072273;28;19923;-80
2024/03/18 03:27:00;;;;;;;;;;;;;;;12.13;56.57;99590.94;5072219;28;19913;-81
2024/03/18 03:29:25;;;;;;;;;;;;;;;12.20;56.33;99586.53;5072252;28;19958;-80
2024/03/18 03:31:50;;;;;;;;;;;;;;;12.20;55.91;99602.41;5072430;28;20445;-80
2024/03/18 03:34:15;;;;;;;;;;;;;;;11.54;55.99;99482.56;5071008;28;20057;-81
2024/03/18 03:36:44;;;;;;;;;;;;;;;12.24;56.30;99588.63;5072471;28;19966;-80
2024/03/18 03:39:11;;;;;;;;;;;;;;;12.26;55.87;99599.03;5072110;28;20404;-81
2024/03/18 03:41:36;;;;;;;;;;;;;;;12.22;56.30;99595.09;5072120;28;19913;-80
2024/03/18 03:44:01;;;;;;;;;;;;;;;12.21;56.26;99593.47;5072000;28;19913;-80
2024/03/18 03:46:26;;;;;;;;;;;;;;;12.21;56.35;99604.06;5072111;28;20332;-80
2024/03/18 03:48:52;;;;;;;;;;;;;;;12.19;56.09;99593.66;5071148;28;19955;-81
2024/03/18 03:51:17;;;;;;;;;;;;;;;12.19;56.48;99606.06;5071787;28;19913;-80
2024/03/18 03:53:42;;;;;;;;;;;;;;;12.13;55.98;99605.00;5071800;28;19912;-80
2024/03/18 03:56:08;;;;;;;;;;;;;;;12.12;55.97;99599.88;5071834;28;19909;-80
2024/03/18 03:58:34;;;;;;;;;;;;;;;12.11;56.48;99607.00;5071953;28;19912;-80
2024/03/18 04:00:59;;;;;;;;;;;;;;;12.09;56.47;99598.44;5071793;28;19912;-80
2024/03/18 04:03:25;;;;;;;;;;;;;;;12.07;56.45;99601.25;5071595;28;19993;-81
2024/03/18 04:05:54;;;;;;;;;;;;;;;12.07;56.02;99595.97;5070913;28;20309;-80
2024/03/18 04:08:20;;;;;;;;;;;;;;;12.03;56.33;99589.41;5071677;28;19978;-80
2024/03/18 04:10:46;;;;;;;;;;;;;;;12.00;55.94;99587.13;5071637;28;19912;-80
2024/03/18 04:13:11;;;;;;;;;;;;;;;11.95;56.22;99594.00;5071549;28;19919;-80
2024/03/18 04:15:36;;;;;;;;;;;;;;;11.90;56.25;99588.44;5070275;28;19912;-81
2024/03/18 04:18:03;;;;;;;;;;;;;;;11.86;56.33;99587.94;5071650;28;19912;-80
2024/03/18 04:20:28;;;;;;;;;;;;;;;11.86;55.80;99587.94;5071638;28;19913;-80
2024/03/18 04:22:54;;;;;;;;;;;;;;;11.87;55.65;99594.06;5071745;28;19918;-80
2024/03/18 04:25:20;;;;;;;;;;;;;;;11.86;55.81;99587.13;5071528;28;20005;-80
2024/03/18 04:27:46;;;;;;;;;;;;;;;11.87;55.50;99586.94;5071683;28;20907;-80
2024/03/18 04:30:13;;;;;;;;;;;;;;;11.85;55.03;99588.97;5071612;28;19944;-81
2024/03/18 04:32:41;;;;;;;;;;;;;;;11.82;55.71;99589.31;5070446;28;20366;-80
2024/03/18 04:35:07;;;;;;;;;;;;;;;11.76;55.10;99593.50;5071426;28;20009;-80
2024/03/18 04:37:34;;;;;;;;;;;;;;;11.74;55.24;99595.50;5072611;28;19916;-81
2024/03/18 04:40:01;;;;;;;;;;;;;;;11.73;54.66;99599.16;5074149;28;19913;-81
2024/03/18 04:42:26;;;;;;;;;;;;;;;11.77;55.25;99608.41;5075591;28;19921;-80
2024/03/18 04:44:51;;;;;;;;;;;;;;;11.79;54.37;99605.56;5074408;28;19921;-80
2024/03/18 04:47:17;;;;;;;;;;;;;;;11.76;54.33;99609.38;5075337;28;19994;-80
2024/03/18 04:49:42;;;;;;;;;;;;;;;11.73;54.37;99607.09;5075449;28;19912;-81
2024/03/18 04:52:08;;;;;;;;;;;;;;;11.74;54.26;99603.44;5075015;28;20440;-80
2024/03/18 04:54:33;;;;;;;;;;;;;;;11.76;54.24;99605.91;5075159;28;20294;-81
2024/03/18 04:56:59;;;;;;;;;;;;;;;11.74;54.11;99613.19;5075484;28;19914;-80
2024/03/18 04:59:24;;;;;;;;;;;;;;;11.74;54.29;99603.44;5075266;28;19913;-80
2024/03/18 05:01:50;;;;;;;;;;;;;;;11.69;53.13;99613.75;5075046;28;19912;-81
2024/03/18 05:04:15;;;;;;;;;;;;;;;11.66;54.10;99608.00;5075417;28;20016;-80
2024/03/18 05:06:41;;;;;;;;;;;;;;;11.69;53.92;99610.28;5075335;28;20396;-81
2024/03/18 05:09:09;;;;;;;;;;;;;;;11.72;53.98;99612.56;5074144;28;20047;-81
2024/03/18 05:11:34;;;;;;;;;;;;;;;11.71;53.89;99606.47;5073817;28;19991;-81
2024/03/18 05:14:00;;;;;;;;;;;;;;;11.72;53.42;99605.44;5075008;28;20006;-81
2024/03/18 05:16:27;;;;;;;;;;;;;;;11.78;53.73;99609.22;5073695;28;20312;-80
2024/03/18 05:18:53;;;;;;;;;;;;;;;11.75;53.28;99598.97;5074930;28;19918;-81
2024/03/18 05:21:18;;;;;;;;;;;;;;;11.81;52.79;99608.84;5074992;28;19912;-81
2024/03/18 05:23:43;;;;;;;;;;;;;;;11.83;53.15;99612.13;5075018;28;19974;-81
2024/03/18 05:26:08;;;;;;;;;;;;;;;11.85;52.64;99606.66;5074849;28;19917;-81
2024/03/18 05:28:34;;;;;;;;;;;;;;;11.85;52.89;99604.00;5074824;28;19923;-80
2024/03/18 05:30:59;;;;;;;;;;;;;;;11.90;52.51;99609.59;5074895;28;19912;-81
2024/03/18 05:33:24;;;;;;;;;;;;;;;11.96;52.99;99616.78;5074911;28;19913;-81
2024/03/18 05:35:49;;;;;;;;;;;;;;;12.00;53.13;99607.47;5074620;28;19995;-81
2024/03/18 05:38:15;;;;;;;;;;;;;;;11.99;51.93;99611.94;5074536;28;19969;-81
2024/03/18 05:40:40;;;;;;;;;;;;;;;12.00;51.89;99610.13;5074822;28;19944;-81
2024/03/18 05:43:05;;;;;;;;;;;;;;;12.03;52.46;99612.41;5073263;28;19962;-81
2024/03/18 05:45:30;;;;;;;;;;;;;;;12.08;51.94;99615.31;5074695;28;19960;-81
2024/03/18 05:47:57;;;;;;;;;;;;;;;12.07;52.21;99616.31;5073111;28;20370;-81
2024/03/18 05:50:22;;;;;;;;;;;;;;;12.11;52.04;99614.94;5073548;28;20416;-81
2024/03/18 05:52:48;;;;;;;;;;;;;;;12.14;51.39;99608.44;5074437;28;19999;-81
2024/03/18 05:55:13;;;;;;;;;;;;;;;12.21;51.43;99609.34;5074143;28;19908;-80
2024/03/18 05:57:39;;;;;;;;;;;;;;;12.14;49.98;99611.09;5073955;28;19919;-80
2024/03/18 06:00:04;;;;;;;;;;;;;;;11.72;49.52;99527.94;5074288;28;20003;-80
2024/03/18 06:02:29;;;;;;;;;;;;;;;12.27;50.16;99605.94;5073764;28;20007;-80
2024/03/18 06:04:55;;;;;;;;;;;;;;;12.29;49.79;99602.13;5073834;28;20332;-81
2024/03/18 06:07:21;;;;;;;;;;;;;;;12.34;48.58;99604.19;5072381;28;19927;-80
2024/03/18 06:09:46;;;;;;;;;;;;;;;12.38;50.25;99602.81;5073793;28;19912;-80
2024/03/18 06:12:12;;;;;;;;;;;;;;;12.43;50.40;99602.25;5073646;28;20003;-81
2024/03/18 06:14:37;;;;;;;;;;;;;;;12.49;49.71;99596.19;5073645;28;19935;-80
2024/03/18 06:17:02;;;;;;;;;;;;;;;12.56;50.91;99597.91;5057809;28;19917;-81
2024/03/18 06:19:33;;;;;;;;;;;;;;;12.56;48.39;99597.06;5054639;28;20271;-80
2024/03/18 06:21:59;;;;;;;;;;;;;;;12.62;48.24;99594.50;5061794;28;19917;-81
2024/03/18 06:24:35;;;;;;;;;;;;;;;12.70;48.71;99586.44;5073358;28;20003;-81
2024/03/18 06:27:00;;;;;;;;;;;;;;;12.80;49.12;99588.78;5073580;28;19919;-81
2024/03/18 06:29:27;;;;;;;;;;;;;;;12.80;47.62;99585.28;5071580;28;19913;-81
2024/03/18 06:31:52;;;;;;;;;;;;;;;12.88;49.13;99587.81;5061361;28;19917;-81
2024/03/18 06:34:17;;;;;;;;;;;;;;;12.93;49.17;99591.53;5073242;28;19976;-81
2024/03/18 06:36:44;;;;;;;;;;;;;;;12.99;49.05;99589.94;5073693;28;19913;-81
2024/03/18 06:39:12;;;;;;;;;;;;;;;13.03;48.72;99596.50;5055760;28;19925;-81
2024/03/18 06:41:38;;;;;;;;;;;;;;;12.99;47.71;99601.34;5052385;28;19912;-81
2024/03/18 06:44:03;;;;;;;;;;;;;;;12.98;47.93;99597.06;5048549;28;20500;-81
2024/03/18 06:46:28;;;;;;;;;;;;;;;13.01;47.93;99598.50;5033443;28;19914;-81
2024/03/18 06:48:54;;;;;;;;;;;;;;;13.02;47.26;99592.19;5033529;28;19913;-81
2024/03/18 06:51:19;;;;;;;;;;;;;;;13.05;46.25;99589.97;5063772;28;19916;-81
2024/03/18 06:53:44;;;;;;;;;;;;;;;13.03;47.86;99592.00;5071899;28;19999;-81
2024/03/18 06:56:10;;;;;;;;;;;;;;;13.14;48.01;99584.53;5073248;28;20007;-81
2024/03/18 06:58:37;;;;;;;;;;;;;;;13.15;47.33;99589.66;5073224;28;20368;-81
2024/03/18 07:01:02;;;;;;;;;;;;;;;13.22;47.90;99590.53;5070805;28;19967;-81
2024/03/18 07:03:29;;;;;;;;;;;;;;;13.27;46.78;99588.13;5060997;28;19927;-81
2024/03/18 07:05:54;;;;;;;;;;;;;;;13.34;47.08;99586.34;5051341;28;19917;-81
2024/03/18 07:08:19;;;;;;;;;;;;;;;13.39;46.74;99585.78;5052661;28;19916;-81
2024/03/18 07:10:44;;;;;;;;;;;;;;;13.42;46.31;99572.13;5052403;28;19913;-81
2024/03/18 07:13:10;;;;;;;;;;;;;;;13.48;45.41;99570.53;5052432;28;20381;-81
2024/03/18 07:15:35;;;;;;;;;;;;;;;13.55;46.94;99576.69;5051020;28;19948;-81
2024/03/18 07:18:01;;;;;;;;;;;;;;;13.54;46.50;99575.03;5052273;28;19966;-81
2024/03/18 07:20:26;;;;;;;;;;;;;;;13.64;46.67;99565.72;5050896;28;20049;-81
2024/03/18 07:22:53;;;;;;;;;;;;;;;13.74;46.81;99562.69;5070043;28;19916;-81
2024/03/18 07:25:18;;;;;;;;;;;;;;;13.83;45.91;99563.34;5072087;28;19987;-80
2024/03/18 07:27:45;;;;;;;;;;;;;;;13.85;46.55;99569.25;5071009;28;19919;-81
2024/03/18 07:30:11;;;;;;;;;;;;;;;13.93;45.96;99561.94;5066719;28;19920;-80
2024/03/18 07:32:36;;;;;;;;;;;;;;;14.03;45.86;99560.75;5052622;28;19917;-82
2024/03/18 07:35:02;;;;;;;;;;;;;;;14.09;44.41;99560.75;5055875;28;19920;-81
2024/03/18 07:37:28;;;;;;;;;;;;;;;14.11;46.19;99556.06;5063999;28;19959;-81
2024/03/18 07:39:54;;;;;;;;;;;;;;;14.19;45.85;99560.41;5071892;28;19912;-81
2024/03/18 07:42:19;;;;;;;;;;;;;;;14.26;45.52;99553.28;5072199;28;19966;-81
2024/03/18 07:44:45;;;;;;;;;;;;;;;14.28;44.74;99546.75;5071935;28;19970;-80
2024/03/18 07:47:10;;;;;;;;;;;;;;;14.23;44.18;99548.38;5070489;28;19966;-81
2024/03/18 07:49:36;;;;;;;;;;;;;;;14.24;46.21;99550.00;5070023;28;19912;-81
2024/03/18 07:52:01;;;;;;;;;;;;;;;14.16;45.96;99548.34;5065680;28;19963;-81
2024/03/18 07:54:33;;;;;;;;;;;;;;;14.15;46.25;99546.72;5060945;28;19916;-81
2024/03/18 07:56:58;;;;;;;;;;;;;;;14.11;46.46;99540.16;5061778;28;19940;-81
2024/03/18 07:59:24;;;;;;;;;;;;;;;14.06;46.36;99537.28;5068626;28;20333;-81
2024/03/18 08:01:49;;;;;;;;;;;;;;;14.10;46.80;99543.81;5071494;28;19913;-83
2024/03/18 08:04:15;;;;;;;;;;;;;;;14.19;46.66;99547.13;5066146;28;19920;-81
2024/03/18 08:06:46;;;;;;;;;;;;;;;14.27;46.38;99544.28;5051523;28;19913;-81
2024/03/18 08:09:19;;;;;;;;;;;;;;;14.38;46.23;99550.84;5047511;28;19924;-81
2024/03/18 08:11:45;;;;;;;;;;;;;;;14.41;44.58;99545.13;5031079;28;20432;-81
2024/03/18 08:14:10;;;;;;;;;;;;;;;14.50;45.58;99538.63;5031567;28;19913;-81
2024/03/18 08:16:36;;;;;;;;;;;;;;;14.53;44.81;99539.03;5049879;28;20003;-81
2024/03/18 08:19:03;;;;;;;;;;;;;;;14.60;43.92;99526.56;5061030;28;19924;-82
2024/03/18 08:21:28;;;;;;;;;;;;;;;14.71;45.45;99526.97;5031893;28;20008;-81
2024/03/18 08:23:53;;;;;;;;;;;;;;;14.84;43.72;99532.28;5033593;28;19945;-81
2024/03/18 08:26:19;;;;;;;;;;;;;;;14.92;44.77;99521.47;5067663;28;20340;-81
2024/03/18 08:28:44;;;;;;;;;;;;;;;15.03;43.46;99517.34;5069573;28;19925;-80
2024/03/18 08:31:10;;;;;;;;;;;;;;;15.15;43.35;99508.53;5059433;28;19916;-80
2024/03/18 08:33:36;;;;;;;;;;;;;;;15.20;42.63;99516.72;5070894;28;19924;-80
2024/03/18 08:36:01;;;;;;;;;;;;;;;15.29;40.81;99511.97;5069995;28;19919;-80
2024/03/18 08:38:27;;;;;;;;;;;;;;;15.39;40.81;99511.53;5069090;28;19921;-80
2024/03/18 08:40:55;;;;;;;;;;;;;;;15.45;42.33;99506.19;5071178;28;19917;-81
2024/03/18 08:43:21;;;;;;;;;;;;;;;15.54;42.18;99506.78;5057121;28;19917;-80
2024/03/18 08:45:53;;;;;;;;;;;;;;;15.63;40.06;99494.91;5051240;28;19970;-80
2024/03/18 08:48:18;;;;;;;;;;;;;;;15.73;39.82;99503.28;5066840;28;19916;-78
2024/03/18 08:50:44;;;;;;;;;;;;;;;15.78;41.33;99484.81;5069819;28;20413;-79
2024/03/18 08:53:10;;;;;;;;;;;;;;;15.96;40.31;99488.59;5071037;28;19913;-81
2024/03/18 08:55:36;;;;;;;;;;;;;;;16.02;38.46;99487.75;5071111;28;20419;-79
2024/03/18 08:58:01;;;;;;;;;;;;;;;16.13;39.04;99477.22;5070891;28;19919;-80
2024/03/18 09:00:26;;;;;;;;;;;;;;;16.17;41.82;99481.09;5070650;28;20389;-80
2024/03/18 09:02:52;;;;;;;;;;;;;;;16.13;37.56;99477.22;5057443;28;19924;-79
2024/03/18 09:05:17;;;;;;;;;;;;;;;16.12;40.80;99464.94;5064287;28;19975;-80
2024/03/18 09:07:42;;;;;;;;;;;;;;;16.25;40.33;99460.53;5050851;28;19917;-79
2024/03/18 09:10:14;;;;;;;;;;;;;;;16.38;36.64;99460.47;5049652;28;19912;-80
2024/03/18 09:12:40;;;;;;;;;;;;;;;16.53;37.32;99461.75;5051780;28;20413;-80
2024/03/18 09:15:05;;;;;;;;;;;;;;;16.72;36.96;99475.97;5050645;28;19996;-80
2024/03/18 09:17:30;;;;;;;;;;;;;;;16.62;35.61;99472.16;5067093;28;19948;-80
2024/03/18 09:19:56;;;;;;;;;;;;;;;16.64;38.40;99468.22;5060100;28;20428;-79
2024/03/18 09:22:21;;;;;;;;;;;;;;;16.79;37.03;99471.41;5053866;28;19917;-79
2024/03/18 09:24:46;;;;;;;;;;;;;;;16.87;33.54;99451.63;5048810;28;19931;-80
2024/03/18 09:27:12;;;;;;;;;;;;;;;17.05;36.03;99467.66;5055517;28;19924;-80
2024/03/18 09:29:37;;;;;;;;;;;;;;;17.13;34.02;99454.03;5063002;28;20432;-80
2024/03/18 09:32:03;;;;;;;;;;;;;;;17.35;32.35;99458.91;5057630;28;20012;-80
2024/03/18 09:34:28;;;;;;;;;;;;;;;17.56;32.03;99454.97;5036077;28;19943;-80
2024/03/18 09:36:54;;;;;;;;;;;;;;;17.69;31.55;99444.94;5062408;28;19916;-80
2024/03/18 09:39:20;;;;;;;;;;;;;;;17.92;32.40;99441.56;5057174;28;19985;-80
2024/03/18 09:41:50;;;;;;;;;;;;;;;18.10;32.71;99432.66;5044317;28;19995;-79
2024/03/18 09:44:15;;;;;;;;;;;;;;;18.21;32.59;99431.88;5052973;28;19917;-79
2024/03/18 09:46:40;;;;;;;;;;;;;;;18.38;33.56;99438.16;5051592;28;20291;-79
2024/03/18 09:49:10;;;;;;;;;;;;;;;18.48;31.82;99431.44;5068880;28;19917;-80
2024/03/18 09:51:38;;;;;;;;;;;;;;;18.65;33.83;99424.41;5054584;28;20405;-80
2024/03/18 09:54:06;;;;;;;;;;;;;;;18.68;30.02;99434.63;5046644;28;19929;-79
2024/03/18 09:56:33;;;;;;;;;;;;;;;18.79;32.82;99424.97;5054823;28;20015;-79
2024/03/18 09:58:58;;;;;;;;;;;;;;;18.83;33.86;99424.25;5047746;28;19913;-79
2024/03/18 10:01:25;;;;;;;;;;;;;;;18.89;29.70;99417.97;5035657;28;20325;-80
2024/03/18 10:03:50;;;;;;;;;;;;;;;19.07;32.42;99418.88;5067813;28;20254;-80
2024/03/18 10:06:17;;;;;;;;;;;;;;;19.22;31.29;99411.16;5072201;28;19916;-80
2024/03/18 10:08:43;;;;;;;;;;;;;;;19.43;31.15;99412.38;5063781;28;19916;-80
2024/03/18 10:11:13;;;;;;;;;;;;;;;19.62;28.08;99416.53;5052791;28;19924;-80
2024/03/18 10:13:38;;;;;;;;;;;;;;;19.77;27.09;99407.97;5049588;28;19925;-80
2024/03/18 10:16:04;;;;;;;;;;;;;;;19.83;26.19;99397.09;5058964;28;20067;-79
2024/03/18 10:18:29;;;;;;;;;;;;;;;20.04;27.86;99395.56;5053424;28;20409;-79
2024/03/18 10:20:58;;;;;;;;;;;;;;;20.18;28.37;99391.53;5053392;28;19917;-80
2024/03/18 10:23:25;;;;;;;;;;;;;;;20.18;29.33;99388.84;5039612;28;19924;-80
2024/03/18 10:25:51;;;;;;;;;;;;;;;20.27;28.95;99387.38;5034024;28;19987;-80
2024/03/18 10:28:16;;;;;;;;;;;;;;;20.34;28.16;99379.16;5044017;28;20484;-80
2024/03/18 10:30:41;;;;;;;;;;;;;;;20.43;27.17;99377.72;5035289;28;19915;-79
2024/03/18 10:33:09;;;;;;;;;;;;;;;20.54;27.32;99376.00;5054413;28;20015;-80
2024/03/18 10:35:35;;;;;;;;;;;;;;;20.76;26.95;99371.47;5046404;28;19928;-80
2024/03/18 10:38:04;;;;;;;;;;;;;;;20.93;25.22;99369.56;5033628;28;19913;-80
2024/03/18 10:40:34;;;;;;;;;;;;;;;20.88;26.60;99368.69;5033378;28;19955;-80
2024/03/18 10:43:03;;;;;;;;;;;;;;;21.04;27.48;99369.69;5033195;28;19921;-79
2024/03/18 10:45:31;;;;;;;;;;;;;;;20.65;26.56;99278.50;5039508;28;19921;-80
2024/03/18 10:47:57;;;;;;;;;;;;;;;21.40;25.38;99354.81;5046223;28;19916;-79
2024/03/18 10:50:23;;;;;;;;;;;;;;;21.55;27.20;99341.53;5039697;28;20377;-78
2024/03/18 10:52:50;;;;;;;;;;;;;;;21.68;27.42;99348.41;5033555;28;19917;-79
2024/03/18 10:55:16;;;;;;;;;;;;;;;21.70;26.63;99344.38;5032744;28;19967;-78
2024/03/18 10:57:46;;;;;;;;;;;;;;;21.84;25.34;99336.72;5032946;28;19913;-80
2024/03/18 11:00:12;;;;;;;;;;;;;;;21.91;26.62;99347.25;5031489;28;19921;-79
2024/03/18 11:02:39;;;;;;;;;;;;;;;21.96;24.80;99333.84;5031308;28;20031;-79
2024/03/18 11:05:04;;;;;;;;;;;;;;;22.05;25.28;99326.97;5032562;28;19917;-79
2024/03/18 11:07:32;;;;;;;;;;;;;;;22.22;25.13;99329.50;5032534;28;19967;-79
2024/03/18 11:10:09;;;;;;;;;;;;;;;22.44;26.46;99319.44;5032500;28;19917;-80
2024/03/18 11:12:34;;;;;;;;;;;;;;;22.65;25.79;99320.34;5032248;28;19919;-78
2024/03/18 11:15:04;;;;;;;;;;;;;;;22.43;26.35;99310.56;5043107;28;20348;-79
2024/03/18 11:17:29;;;;;;;;;;;;;;;22.56;27.44;99298.50;5055395;28;19919;-79
2024/03/18 11:19:57;;;;;;;;;;;;;;;22.64;26.42;99294.50;5072426;28;19920;-79
2024/03/18 11:22:22;;;;;;;;;;;;;;;22.72;24.55;99289.41;5064018;28;19913;-79
2024/03/18 11:24:51;;;;;;;;;;;;;;;22.82;26.33;99285.97;5052230;28;19917;-79
2024/03/18 11:27:17;;;;;;;;;;;;;;;22.69;26.81;99278.38;5051925;28;19916;-79
2024/03/18 11:29:43;;;;;;;;;;;;;;;22.73;26.23;99280.28;5049980;28;19923;-79
2024/03/18 11:32:10;;;;;;;;;;;;;;;22.87;25.51;99277.94;5049923;28;19974;-80
2024/03/18 11:34:36;;;;;;;;;;;;;;;23.01;26.01;99260.19;5031920;28;20024;-80
2024/03/18 11:37:01;;;;;;;;;;;;;;;23.20;24.58;99259.72;5032143;28;20369;-80
2024/03/18 11:39:27;;;;;;;;;;;;;;;23.32;27.01;99266.47;5032987;28;19936;-80
2024/03/18 11:42:03;;;;;;;;;;;;;;;23.48;24.94;99253.00;5032115;28;19909;-79
2024/03/18 11:44:28;;;;;;;;;;;;;;;22.88;24.81;99163.78;5030588;28;20014;-80
2024/03/18 11:47:03;;;;;;;;;;;;;;;23.14;23.27;99245.44;5031088;28;19974;-80
2024/03/18 11:49:29;;;;;;;;;;;;;;;23.01;24.44;99229.75;5031785;28;19911;-80
2024/03/18 11:51:55;;;;;;;;;;;;;;;23.00;24.44;99238.91;5032276;28;19917;-80
2024/03/18 11:54:20;;;;;;;;;;;;;;;23.20;24.54;99232.78;5050936;28;19921;-80
2024/03/18 11:56:45;;;;;;;;;;;;;;;23.12;25.69;99226.84;5047875;28;19939;-80
2024/03/18 11:59:18;;;;;;;;;;;;;;;23.01;25.75;99227.06;5044540;28;20394;-81
2024/03/18 12:01:44;;;;;;;;;;;;;;;22.87;24.19;99221.38;5032009;28;19949;-80
2024/03/18 12:04:09;;;;;;;;;;;;;;;22.83;24.27;99221.13;5045594;28;19917;-80
2024/03/18 12:06:38;;;;;;;;;;;;;;;22.70;25.20;99210.00;5048051;28;19970;-78
2024/03/18 12:09:07;;;;;;;;;;;;;;;22.65;26.06;99220.75;5047987;28;20370;-79
2024/03/18 12:11:33;;;;;;;;;;;;;;;22.49;25.95;99203.75;5072498;28;19934;-78
2024/03/18 12:13:58;;;;;;;;;;;;;;;22.33;25.38;99204.78;5071702;28;20405;-80
2024/03/18 12:16:25;;;;;;;;;;;;;;;22.18;26.35;99200.94;5051338;28;19916;-80
2024/03/18 12:18:51;;;;;;;;;;;;;;;21.92;26.38;99191.09;5038549;28;19925;-80
2024/03/18 12:21:16;;;;;;;;;;;;;;;21.63;26.03;99198.69;5056937;28;20019;-79
2024/03/18 12:29:20;;;;;;;;;;;;;;;21.17;27.60;99187.56;5071378;28;20050;-80
2024/03/18 12:31:45;;;;;;;;;;;;;;;21.15;27.17;99183.50;5071445;28;19919;-80
2024/03/18 12:34:11;;;;;;;;;;;;;;;21.16;28.00;99177.88;5051814;28;20421;-79
2024/03/18 12:36:36;;;;;;;;;;;;;;;21.15;26.87;99178.13;5051233;28;19913;-80
2024/03/18 12:39:05;;;;;;;;;;;;;;;21.09;28.99;99171.91;5051065;28;20393;-79
2024/03/18 12:41:32;;;;;;;;;;;;;;;20.99;29.10;99174.50;5051123;28;19952;-79
2024/03/18 12:43:57;;;;;;;;;;;;;;;20.80;26.71;99174.03;5049920;28;20416;-80
2024/03/18 12:46:23;;;;;;;;;;;;;;;20.72;26.68;99171.00;5051126;28;20004;-80